sensor_id;sensor_type;location;lat;lon;timestamp;P1;durP1;ratioP1;P2;durP2;ratioP2
42420;SDS011;28063;48.140;11.588;2023-03-01T00:01:58;20.75;;;12.15;;
42420;SDS011;28063;48.140;11.588;2023-03-01T00:04:24;24.27;;;13.18;;
42420;SDS011;28063;48.140;11.588;2023-03-01T00:06:49;15.18;;;9.18;;
42420;SDS011;28063;48.140;11.588;2023-03-01T00:09:16;22.10;;;11.95;;
42420;SDS011;28063;48.140;11.588;2023-03-01T00:11:43;19.00;;;11.07;;
42420;SDS011;28063;48.140;11.588;2023-03-01T00:14:08;23.85;;;13.30;;
42420;SDS011;28063;48.140;11.588;2023-03-01T00:16:38;21.63;;;12.07;;
42420;SDS011;28063;48.140;11.588;2023-03-01T00:19:06;17.08;;;10.88;;
42420;SDS011;28063;48.140;11.588;2023-03-01T00:21:34;14.23;;;9.10;;
42420;SDS011;28063;48.140;11.588;2023-03-01T00:24:00;17.52;;;9.88;;
42420;SDS011;28063;48.140;11.588;2023-03-01T00:26:26;19.08;;;11.15;;
42420;SDS011;28063;48.140;11.588;2023-03-01T00:28:53;21.23;;;11.35;;
42420;SDS011;28063;48.140;11.588;2023-03-01T00:31:23;17.02;;;9.32;;
42420;SDS011;28063;48.140;11.588;2023-03-01T00:33:54;14.98;;;9.15;;
42420;SDS011;28063;48.140;11.588;2023-03-01T00:36:22;15.30;;;9.35;;
42420;SDS011;28063;48.140;11.588;2023-03-01T00:38:50;16.80;;;9.10;;
42420;SDS011;28063;48.140;11.588;2023-03-01T00:41:16;19.38;;;11.73;;
42420;SDS011;28063;48.140;11.588;2023-03-01T00:43:43;17.35;;;10.52;;
42420;SDS011;28063;48.140;11.588;2023-03-01T00:46:11;17.90;;;10.85;;
42420;SDS011;28063;48.140;11.588;2023-03-01T00:48:39;17.73;;;11.48;;
42420;SDS011;28063;48.140;11.588;2023-03-01T00:51:05;17.35;;;10.38;;
42420;SDS011;28063;48.140;11.588;2023-03-01T00:53:32;18.27;;;10.63;;
42420;SDS011;28063;48.140;11.588;2023-03-01T00:55:59;16.70;;;10.25;;
42420;SDS011;28063;48.140;11.588;2023-03-01T00:58:25;23.48;;;12.18;;
42420;SDS011;28063;48.140;11.588;2023-03-01T01:00:51;19.63;;;11.63;;
42420;SDS011;28063;48.140;11.588;2023-03-01T01:03:20;22.45;;;12.73;;
42420;SDS011;28063;48.140;11.588;2023-03-01T01:05:46;15.93;;;10.48;;
42420;SDS011;28063;48.140;11.588;2023-03-01T01:08:12;16.70;;;10.07;;
42420;SDS011;28063;48.140;11.588;2023-03-01T01:10:38;19.52;;;12.07;;
42420;SDS011;28063;48.140;11.588;2023-03-01T01:13:04;21.00;;;11.27;;
42420;SDS011;28063;48.140;11.588;2023-03-01T01:15:33;18.35;;;10.68;;
42420;SDS011;28063;48.140;11.588;2023-03-01T01:17:59;18.90;;;11.02;;
42420;SDS011;28063;48.140;11.588;2023-03-01T01:20:25;18.73;;;11.70;;
42420;SDS011;28063;48.140;11.588;2023-03-01T01:22:51;21.10;;;11.35;;
42420;SDS011;28063;48.140;11.588;2023-03-01T01:25:17;18.35;;;10.32;;
42420;SDS011;28063;48.140;11.588;2023-03-01T01:27:43;20.83;;;12.40;;
42420;SDS011;28063;48.140;11.588;2023-03-01T01:30:09;20.27;;;10.25;;
42420;SDS011;28063;48.140;11.588;2023-03-01T01:32:35;20.00;;;10.60;;
42420;SDS011;28063;48.140;11.588;2023-03-01T01:35:01;16.40;;;8.95;;
42420;SDS011;28063;48.140;11.588;2023-03-01T01:37:26;15.75;;;8.27;;
42420;SDS011;28063;48.140;11.588;2023-03-01T01:39:59;14.60;;;9.05;;
42420;SDS011;28063;48.140;11.588;2023-03-01T01:45:54;23.02;;;12.23;;
42420;SDS011;28063;48.140;11.588;2023-03-01T01:47:48;19.85;;;9.98;;
42420;SDS011;28063;48.140;11.588;2023-03-01T01:50:16;20.75;;;10.50;;
42420;SDS011;28063;48.140;11.588;2023-03-01T01:52:44;19.05;;;12.07;;
42420;SDS011;28063;48.140;11.588;2023-03-01T01:55:12;16.85;;;11.07;;
42420;SDS011;28063;48.140;11.588;2023-03-01T01:57:43;14.23;;;9.38;;
42420;SDS011;28063;48.140;11.588;2023-03-01T02:00:13;14.52;;;9.18;;
42420;SDS011;28063;48.140;11.588;2023-03-01T02:02:44;21.85;;;11.88;;
42420;SDS011;28063;48.140;11.588;2023-03-01T02:05:18;18.92;;;11.13;;
42420;SDS011;28063;48.140;11.588;2023-03-01T02:08:06;18.33;;;10.38;;
42420;SDS011;28063;48.140;11.588;2023-03-01T02:10:33;19.05;;;9.77;;
42420;SDS011;28063;48.140;11.588;2023-03-01T02:13:00;17.88;;;10.70;;
42420;SDS011;28063;48.140;11.588;2023-03-01T02:15:27;20.25;;;11.00;;
42420;SDS011;28063;48.140;11.588;2023-03-01T02:17:58;19.73;;;11.65;;
42420;SDS011;28063;48.140;11.588;2023-03-01T02:20:31;16.88;;;9.80;;
42420;SDS011;28063;48.140;11.588;2023-03-01T02:23:05;18.70;;;11.90;;
42420;SDS011;28063;48.140;11.588;2023-03-01T02:25:47;21.13;;;12.10;;
42420;SDS011;28063;48.140;11.588;2023-03-01T02:28:29;15.27;;;9.80;;
42420;SDS011;28063;48.140;11.588;2023-03-01T02:30:55;17.67;;;10.35;;
42420;SDS011;28063;48.140;11.588;2023-03-01T02:33:39;23.55;;;13.90;;
42420;SDS011;28063;48.140;11.588;2023-03-01T02:36:10;21.35;;;12.13;;
42420;SDS011;28063;48.140;11.588;2023-03-01T02:38:41;17.52;;;11.57;;
42420;SDS011;28063;48.140;11.588;2023-03-01T02:41:07;19.23;;;11.48;;
42420;SDS011;28063;48.140;11.588;2023-03-01T02:43:36;21.40;;;12.02;;
42420;SDS011;28063;48.140;11.588;2023-03-01T02:46:04;24.13;;;14.05;;
42420;SDS011;28063;48.140;11.588;2023-03-01T02:48:42;19.88;;;13.30;;
42420;SDS011;28063;48.140;11.588;2023-03-01T02:51:13;20.15;;;10.70;;
42420;SDS011;28063;48.140;11.588;2023-03-01T02:54:26;17.73;;;10.77;;
42420;SDS011;28063;48.140;11.588;2023-03-01T02:56:50;18.23;;;11.27;;
42420;SDS011;28063;48.140;11.588;2023-03-01T02:59:18;21.10;;;12.35;;
42420;SDS011;28063;48.140;11.588;2023-03-01T03:01:45;20.88;;;12.60;;
42420;SDS011;28063;48.140;11.588;2023-03-01T03:04:13;21.45;;;12.25;;
42420;SDS011;28063;48.140;11.588;2023-03-01T03:06:42;20.58;;;11.40;;
42420;SDS011;28063;48.140;11.588;2023-03-01T03:09:12;20.38;;;12.73;;
42420;SDS011;28063;48.140;11.588;2023-03-01T03:11:38;15.95;;;9.43;;
42420;SDS011;28063;48.140;11.588;2023-03-01T03:14:07;21.80;;;13.10;;
42420;SDS011;28063;48.140;11.588;2023-03-01T03:16:39;21.73;;;13.93;;
42420;SDS011;28063;48.140;11.588;2023-03-01T03:19:06;18.63;;;11.75;;
42420;SDS011;28063;48.140;11.588;2023-03-01T03:21:32;24.58;;;15.05;;
42420;SDS011;28063;48.140;11.588;2023-03-01T03:23:58;19.90;;;11.52;;
42420;SDS011;28063;48.140;11.588;2023-03-01T03:26:23;17.17;;;10.68;;
42420;SDS011;28063;48.140;11.588;2023-03-01T03:28:49;15.93;;;9.23;;
42420;SDS011;28063;48.140;11.588;2023-03-01T03:31:15;22.67;;;14.50;;
42420;SDS011;28063;48.140;11.588;2023-03-01T03:33:41;20.00;;;12.40;;
42420;SDS011;28063;48.140;11.588;2023-03-01T03:36:07;18.38;;;11.50;;
42420;SDS011;28063;48.140;11.588;2023-03-01T03:38:38;17.20;;;10.55;;
42420;SDS011;28063;48.140;11.588;2023-03-01T03:41:05;17.05;;;10.90;;
42420;SDS011;28063;48.140;11.588;2023-03-01T03:43:33;18.63;;;10.98;;
42420;SDS011;28063;48.140;11.588;2023-03-01T03:46:01;22.85;;;12.00;;
42420;SDS011;28063;48.140;11.588;2023-03-01T03:48:31;17.70;;;11.18;;
42420;SDS011;28063;48.140;11.588;2023-03-01T03:50:58;16.33;;;10.10;;
42420;SDS011;28063;48.140;11.588;2023-03-01T03:53:25;17.25;;;9.65;;
42420;SDS011;28063;48.140;11.588;2023-03-01T03:55:52;14.20;;;9.60;;
42420;SDS011;28063;48.140;11.588;2023-03-01T03:58:19;27.08;;;14.75;;
42420;SDS011;28063;48.140;11.588;2023-03-01T04:00:47;19.00;;;12.73;;
42420;SDS011;28063;48.140;11.588;2023-03-01T04:03:15;22.13;;;12.82;;
42420;SDS011;28063;48.140;11.588;2023-03-01T04:05:43;18.42;;;11.45;;
42420;SDS011;28063;48.140;11.588;2023-03-01T04:08:10;22.80;;;13.48;;
42420;SDS011;28063;48.140;11.588;2023-03-01T04:10:40;18.85;;;10.10;;
42420;SDS011;28063;48.140;11.588;2023-03-01T04:13:11;19.27;;;12.15;;
42420;SDS011;28063;48.140;11.588;2023-03-01T04:15:39;20.92;;;12.27;;
42420;SDS011;28063;48.140;11.588;2023-03-01T04:18:05;19.13;;;10.95;;
42420;SDS011;28063;48.140;11.588;2023-03-01T04:20:32;17.55;;;9.95;;
42420;SDS011;28063;48.140;11.588;2023-03-01T04:23:21;24.20;;;12.95;;
42420;SDS011;28063;48.140;11.588;2023-03-01T04:25:47;21.42;;;12.10;;
42420;SDS011;28063;48.140;11.588;2023-03-01T04:28:30;24.35;;;13.77;;
42420;SDS011;28063;48.140;11.588;2023-03-01T04:31:01;24.17;;;13.35;;
42420;SDS011;28063;48.140;11.588;2023-03-01T04:33:38;20.67;;;12.65;;
42420;SDS011;28063;48.140;11.588;2023-03-01T04:36:16;17.95;;;11.98;;
42420;SDS011;28063;48.140;11.588;2023-03-01T04:38:44;20.73;;;12.05;;
42420;SDS011;28063;48.140;11.588;2023-03-01T04:41:13;17.15;;;10.07;;
42420;SDS011;28063;48.140;11.588;2023-03-01T04:43:41;16.70;;;9.60;;
42420;SDS011;28063;48.140;11.588;2023-03-01T04:46:07;19.05;;;10.85;;
42420;SDS011;28063;48.140;11.588;2023-03-01T04:48:36;19.98;;;11.38;;
42420;SDS011;28063;48.140;11.588;2023-03-01T04:51:05;18.33;;;11.40;;
42420;SDS011;28063;48.140;11.588;2023-03-01T04:53:31;18.05;;;10.98;;
42420;SDS011;28063;48.140;11.588;2023-03-01T04:55:57;21.35;;;10.45;;
42420;SDS011;28063;48.140;11.588;2023-03-01T04:58:24;14.93;;;9.25;;
42420;SDS011;28063;48.140;11.588;2023-03-01T05:00:51;20.75;;;12.23;;
42420;SDS011;28063;48.140;11.588;2023-03-01T05:03:18;23.27;;;13.57;;
42420;SDS011;28063;48.140;11.588;2023-03-01T05:05:45;18.70;;;12.27;;
42420;SDS011;28063;48.140;11.588;2023-03-01T05:08:12;22.65;;;11.90;;
42420;SDS011;28063;48.140;11.588;2023-03-01T05:10:43;20.42;;;12.32;;
42420;SDS011;28063;48.140;11.588;2023-03-01T05:13:11;21.85;;;13.80;;
42420;SDS011;28063;48.140;11.588;2023-03-01T05:15:46;20.77;;;12.20;;
42420;SDS011;28063;48.140;11.588;2023-03-01T05:18:23;18.40;;;10.75;;
42420;SDS011;28063;48.140;11.588;2023-03-01T05:20:55;17.73;;;11.80;;
42420;SDS011;28063;48.140;11.588;2023-03-01T05:23:29;19.52;;;12.13;;
42420;SDS011;28063;48.140;11.588;2023-03-01T05:25:59;19.05;;;10.77;;
42420;SDS011;28063;48.140;11.588;2023-03-01T05:28:27;20.60;;;12.52;;
42420;SDS011;28063;48.140;11.588;2023-03-01T05:30:53;26.23;;;13.82;;
42420;SDS011;28063;48.140;11.588;2023-03-01T05:33:19;25.05;;;14.40;;
42420;SDS011;28063;48.140;11.588;2023-03-01T05:35:47;22.13;;;12.80;;
42420;SDS011;28063;48.140;11.588;2023-03-01T05:38:13;23.83;;;13.60;;
42420;SDS011;28063;48.140;11.588;2023-03-01T05:40:40;24.35;;;12.80;;
42420;SDS011;28063;48.140;11.588;2023-03-01T05:43:08;18.95;;;11.90;;
42420;SDS011;28063;48.140;11.588;2023-03-01T05:45:35;21.08;;;11.02;;
42420;SDS011;28063;48.140;11.588;2023-03-01T05:48:03;17.60;;;10.00;;
42420;SDS011;28063;48.140;11.588;2023-03-01T05:50:31;22.30;;;13.80;;
42420;SDS011;28063;48.140;11.588;2023-03-01T05:55:33;23.92;;;12.60;;
42420;SDS011;28063;48.140;11.588;2023-03-01T05:58:04;19.80;;;12.07;;
42420;SDS011;28063;48.140;11.588;2023-03-01T06:00:31;24.42;;;12.82;;
42420;SDS011;28063;48.140;11.588;2023-03-01T06:02:58;26.48;;;12.95;;
42420;SDS011;28063;48.140;11.588;2023-03-01T06:05:25;20.85;;;13.50;;
42420;SDS011;28063;48.140;11.588;2023-03-01T06:07:52;23.83;;;13.48;;
42420;SDS011;28063;48.140;11.588;2023-03-01T06:10:18;27.55;;;14.63;;
42420;SDS011;28063;48.140;11.588;2023-03-01T06:12:46;22.27;;;13.43;;
42420;SDS011;28063;48.140;11.588;2023-03-01T06:15:12;19.67;;;11.30;;
42420;SDS011;28063;48.140;11.588;2023-03-01T06:17:41;23.98;;;12.25;;
42420;SDS011;28063;48.140;11.588;2023-03-01T06:22:42;22.65;;;11.40;;
42420;SDS011;28063;48.140;11.588;2023-03-01T06:25:09;16.73;;;10.43;;
42420;SDS011;28063;48.140;11.588;2023-03-01T06:27:34;20.50;;;11.48;;
42420;SDS011;28063;48.140;11.588;2023-03-01T06:30:01;19.90;;;11.60;;
42420;SDS011;28063;48.140;11.588;2023-03-01T06:32:26;18.00;;;10.60;;
42420;SDS011;28063;48.140;11.588;2023-03-01T06:34:52;19.08;;;11.43;;
42420;SDS011;28063;48.140;11.588;2023-03-01T06:37:18;21.48;;;11.68;;
42420;SDS011;28063;48.140;11.588;2023-03-01T06:39:43;23.15;;;13.68;;
42420;SDS011;28063;48.140;11.588;2023-03-01T06:42:09;24.15;;;13.20;;
42420;SDS011;28063;48.140;11.588;2023-03-01T06:44:35;24.60;;;13.30;;
42420;SDS011;28063;48.140;11.588;2023-03-01T06:47:01;23.73;;;12.23;;
42420;SDS011;28063;48.140;11.588;2023-03-01T06:49:28;25.63;;;14.30;;
42420;SDS011;28063;48.140;11.588;2023-03-01T06:51:54;20.08;;;11.88;;
42420;SDS011;28063;48.140;11.588;2023-03-01T06:54:20;22.55;;;12.27;;
42420;SDS011;28063;48.140;11.588;2023-03-01T06:56:47;22.23;;;11.80;;
42420;SDS011;28063;48.140;11.588;2023-03-01T06:59:13;28.25;;;15.95;;
42420;SDS011;28063;48.140;11.588;2023-03-01T07:01:40;22.25;;;12.95;;
42420;SDS011;28063;48.140;11.588;2023-03-01T07:04:06;27.70;;;14.23;;
42420;SDS011;28063;48.140;11.588;2023-03-01T07:06:31;26.83;;;14.30;;
42420;SDS011;28063;48.140;11.588;2023-03-01T07:08:57;21.38;;;12.93;;
42420;SDS011;28063;48.140;11.588;2023-03-01T07:11:23;23.33;;;12.23;;
42420;SDS011;28063;48.140;11.588;2023-03-01T07:13:49;19.63;;;10.82;;
42420;SDS011;28063;48.140;11.588;2023-03-01T07:16:14;21.48;;;12.90;;
42420;SDS011;28063;48.140;11.588;2023-03-01T07:18:41;26.88;;;14.25;;
42420;SDS011;28063;48.140;11.588;2023-03-01T07:21:07;22.60;;;13.95;;
42420;SDS011;28063;48.140;11.588;2023-03-01T07:23:34;29.88;;;16.08;;
42420;SDS011;28063;48.140;11.588;2023-03-01T07:26:00;29.52;;;14.85;;
42420;SDS011;28063;48.140;11.588;2023-03-01T07:28:26;21.85;;;13.25;;
42420;SDS011;28063;48.140;11.588;2023-03-01T07:30:52;21.52;;;12.93;;
42420;SDS011;28063;48.140;11.588;2023-03-01T07:33:18;24.33;;;13.10;;
42420;SDS011;28063;48.140;11.588;2023-03-01T07:35:44;22.70;;;12.88;;
42420;SDS011;28063;48.140;11.588;2023-03-01T07:38:09;28.95;;;14.32;;
42420;SDS011;28063;48.140;11.588;2023-03-01T07:40:35;24.05;;;13.45;;
42420;SDS011;28063;48.140;11.588;2023-03-01T07:43:01;22.15;;;11.75;;
42420;SDS011;28063;48.140;11.588;2023-03-01T07:45:29;19.42;;;11.25;;
42420;SDS011;28063;48.140;11.588;2023-03-01T07:47:56;17.85;;;10.18;;
42420;SDS011;28063;48.140;11.588;2023-03-01T07:50:22;15.40;;;9.50;;
42420;SDS011;28063;48.140;11.588;2023-03-01T07:52:49;14.13;;;8.27;;
42420;SDS011;28063;48.140;11.588;2023-03-01T07:55:15;18.42;;;9.93;;
42420;SDS011;28063;48.140;11.588;2023-03-01T07:57:41;20.80;;;12.18;;
42420;SDS011;28063;48.140;11.588;2023-03-01T08:00:07;23.73;;;14.10;;
42420;SDS011;28063;48.140;11.588;2023-03-01T08:02:35;21.83;;;13.32;;
42420;SDS011;28063;48.140;11.588;2023-03-01T08:05:01;24.52;;;13.80;;
42420;SDS011;28063;48.140;11.588;2023-03-01T08:07:26;17.15;;;10.52;;
42420;SDS011;28063;48.140;11.588;2023-03-01T08:09:52;24.77;;;13.85;;
42420;SDS011;28063;48.140;11.588;2023-03-01T08:12:18;26.23;;;15.10;;
42420;SDS011;28063;48.140;11.588;2023-03-01T08:14:43;23.73;;;13.30;;
42420;SDS011;28063;48.140;11.588;2023-03-01T08:17:09;24.83;;;14.00;;
42420;SDS011;28063;48.140;11.588;2023-03-01T08:19:35;21.70;;;12.32;;
42420;SDS011;28063;48.140;11.588;2023-03-01T08:22:02;22.15;;;12.70;;
42420;SDS011;28063;48.140;11.588;2023-03-01T08:24:28;24.45;;;14.50;;
42420;SDS011;28063;48.140;11.588;2023-03-01T08:26:54;21.17;;;12.88;;
42420;SDS011;28063;48.140;11.588;2023-03-01T08:29:20;25.25;;;13.48;;
42420;SDS011;28063;48.140;11.588;2023-03-01T08:31:46;26.02;;;14.98;;
42420;SDS011;28063;48.140;11.588;2023-03-01T08:34:13;24.50;;;14.43;;
42420;SDS011;28063;48.140;11.588;2023-03-01T08:36:41;24.33;;;13.82;;
42420;SDS011;28063;48.140;11.588;2023-03-01T08:39:10;26.85;;;14.93;;
42420;SDS011;28063;48.140;11.588;2023-03-01T08:41:37;21.98;;;12.52;;
42420;SDS011;28063;48.140;11.588;2023-03-01T08:44:03;23.17;;;13.70;;
42420;SDS011;28063;48.140;11.588;2023-03-01T08:46:31;22.52;;;13.80;;
42420;SDS011;28063;48.140;11.588;2023-03-01T08:48:58;28.38;;;15.30;;
42420;SDS011;28063;48.140;11.588;2023-03-01T08:51:25;23.65;;;13.90;;
42420;SDS011;28063;48.140;11.588;2023-03-01T08:53:51;25.02;;;12.23;;
42420;SDS011;28063;48.140;11.588;2023-03-01T08:56:17;19.88;;;11.40;;
42420;SDS011;28063;48.140;11.588;2023-03-01T08:58:45;17.67;;;9.70;;
42420;SDS011;28063;48.140;11.588;2023-03-01T09:01:13;18.23;;;10.70;;
42420;SDS011;28063;48.140;11.588;2023-03-01T09:03:42;17.05;;;10.18;;
42420;SDS011;28063;48.140;11.588;2023-03-01T09:06:08;26.70;;;13.77;;
42420;SDS011;28063;48.140;11.588;2023-03-01T09:08:35;24.60;;;12.95;;
42420;SDS011;28063;48.140;11.588;2023-03-01T09:11:03;20.67;;;13.43;;
42420;SDS011;28063;48.140;11.588;2023-03-01T09:13:29;20.38;;;11.10;;
42420;SDS011;28063;48.140;11.588;2023-03-01T09:15:57;22.88;;;12.77;;
42420;SDS011;28063;48.140;11.588;2023-03-01T09:18:23;25.02;;;13.07;;
42420;SDS011;28063;48.140;11.588;2023-03-01T09:20:48;21.50;;;12.55;;
42420;SDS011;28063;48.140;11.588;2023-03-01T09:23:14;18.20;;;10.25;;
42420;SDS011;28063;48.140;11.588;2023-03-01T09:25:40;24.83;;;13.95;;
42420;SDS011;28063;48.140;11.588;2023-03-01T09:28:06;24.73;;;12.88;;
42420;SDS011;28063;48.140;11.588;2023-03-01T09:30:31;21.25;;;13.55;;
42420;SDS011;28063;48.140;11.588;2023-03-01T09:32:57;22.80;;;14.30;;
42420;SDS011;28063;48.140;11.588;2023-03-01T09:35:23;22.20;;;12.73;;
42420;SDS011;28063;48.140;11.588;2023-03-01T09:37:49;23.92;;;12.77;;
42420;SDS011;28063;48.140;11.588;2023-03-01T09:40:19;21.45;;;12.55;;
42420;SDS011;28063;48.140;11.588;2023-03-01T09:42:51;22.10;;;12.65;;
42420;SDS011;28063;48.140;11.588;2023-03-01T09:45:34;25.17;;;13.75;;
42420;SDS011;28063;48.140;11.588;2023-03-01T09:48:05;24.92;;;14.27;;
42420;SDS011;28063;48.140;11.588;2023-03-01T09:50:35;23.85;;;14.20;;
42420;SDS011;28063;48.140;11.588;2023-03-01T09:53:05;25.23;;;13.57;;
42420;SDS011;28063;48.140;11.588;2023-03-01T09:55:43;18.48;;;11.40;;
42420;SDS011;28063;48.140;11.588;2023-03-01T09:58:25;20.70;;;12.05;;
42420;SDS011;28063;48.140;11.588;2023-03-01T10:09:39;16.08;;;10.65;;
42420;SDS011;28063;48.140;11.588;2023-03-01T10:12:20;16.55;;;11.27;;
42420;SDS011;28063;48.140;11.588;2023-03-01T10:14:56;21.70;;;12.38;;
42420;SDS011;28063;48.140;11.588;2023-03-01T10:20:23;24.33;;;15.00;;
42420;SDS011;28063;48.140;11.588;2023-03-01T10:22:51;21.40;;;14.05;;
42420;SDS011;28063;48.140;11.588;2023-03-01T10:30:41;17.95;;;10.57;;
42420;SDS011;28063;48.140;11.588;2023-03-01T10:33:22;16.23;;;10.32;;
42420;SDS011;28063;48.140;11.588;2023-03-01T10:35:51;14.95;;;9.45;;
42420;SDS011;28063;48.140;11.588;2023-03-01T10:38:17;20.50;;;12.15;;
42420;SDS011;28063;48.140;11.588;2023-03-01T10:43:27;17.88;;;10.82;;
42420;SDS011;28063;48.140;11.588;2023-03-01T10:46:27;22.20;;;13.50;;
42420;SDS011;28063;48.140;11.588;2023-03-01T10:49:18;24.70;;;14.55;;
42420;SDS011;28063;48.140;11.588;2023-03-01T10:51:51;23.23;;;13.82;;
42420;SDS011;28063;48.140;11.588;2023-03-01T10:54:20;23.35;;;14.40;;
42420;SDS011;28063;48.140;11.588;2023-03-01T10:56:54;27.35;;;14.43;;
42420;SDS011;28063;48.140;11.588;2023-03-01T10:59:31;28.02;;;14.75;;
42420;SDS011;28063;48.140;11.588;2023-03-01T11:05:00;16.67;;;10.70;;
42420;SDS011;28063;48.140;11.588;2023-03-01T11:07:52;20.15;;;12.00;;
42420;SDS011;28063;48.140;11.588;2023-03-01T11:10:23;21.45;;;12.25;;
42420;SDS011;28063;48.140;11.588;2023-03-01T11:13:13;26.52;;;15.18;;
42420;SDS011;28063;48.140;11.588;2023-03-01T11:16:03;26.55;;;15.55;;
42420;SDS011;28063;48.140;11.588;2023-03-01T11:18:35;29.05;;;14.73;;
42420;SDS011;28063;48.140;11.588;2023-03-01T11:21:00;21.02;;;14.05;;
42420;SDS011;28063;48.140;11.588;2023-03-01T11:23:27;24.60;;;15.50;;
42420;SDS011;28063;48.140;11.588;2023-03-01T11:25:56;23.63;;;13.32;;
42420;SDS011;28063;48.140;11.588;2023-03-01T11:28:25;27.17;;;15.48;;
42420;SDS011;28063;48.140;11.588;2023-03-01T11:30:55;23.40;;;14.85;;
42420;SDS011;28063;48.140;11.588;2023-03-01T11:38:57;29.83;;;17.08;;
42420;SDS011;28063;48.140;11.588;2023-03-01T11:41:45;22.33;;;14.45;;
42420;SDS011;28063;48.140;11.588;2023-03-01T11:44:20;24.73;;;16.02;;
42420;SDS011;28063;48.140;11.588;2023-03-01T11:46:54;24.88;;;15.23;;
42420;SDS011;28063;48.140;11.588;2023-03-01T11:57:53;22.95;;;14.75;;
42420;SDS011;28063;48.140;11.588;2023-03-01T12:06:15;19.45;;;11.18;;
42420;SDS011;28063;48.140;11.588;2023-03-01T12:09:27;20.63;;;12.73;;
42420;SDS011;28063;48.140;11.588;2023-03-01T12:25:43;23.55;;;14.27;;
42420;SDS011;28063;48.140;11.588;2023-03-01T12:28:39;21.40;;;13.95;;
42420;SDS011;28063;48.140;11.588;2023-03-01T12:51:10;24.67;;;16.05;;
42420;SDS011;28063;48.140;11.588;2023-03-01T12:53:40;22.00;;;14.27;;
42420;SDS011;28063;48.140;11.588;2023-03-01T12:56:10;27.77;;;17.48;;
42420;SDS011;28063;48.140;11.588;2023-03-01T12:58:59;26.90;;;16.75;;
42420;SDS011;28063;48.140;11.588;2023-03-01T13:05:00;30.17;;;17.98;;
42420;SDS011;28063;48.140;11.588;2023-03-01T13:13:22;24.92;;;15.48;;
42420;SDS011;28063;48.140;11.588;2023-03-01T13:15:49;26.85;;;15.90;;
42420;SDS011;28063;48.140;11.588;2023-03-01T13:23:23;25.45;;;15.80;;
42420;SDS011;28063;48.140;11.588;2023-03-01T13:26:11;27.95;;;16.67;;
42420;SDS011;28063;48.140;11.588;2023-03-01T13:33:52;25.02;;;15.93;;
42420;SDS011;28063;48.140;11.588;2023-03-01T13:46:49;28.48;;;17.35;;
42420;SDS011;28063;48.140;11.588;2023-03-01T13:49:18;28.25;;;16.92;;
42420;SDS011;28063;48.140;11.588;2023-03-01T13:51:48;26.75;;;15.25;;
42420;SDS011;28063;48.140;11.588;2023-03-01T13:54:15;24.27;;;14.02;;
42420;SDS011;28063;48.140;11.588;2023-03-01T13:56:46;27.80;;;16.30;;
42420;SDS011;28063;48.140;11.588;2023-03-01T13:59:13;28.75;;;16.30;;
42420;SDS011;28063;48.140;11.588;2023-03-01T14:01:51;28.63;;;16.15;;
42420;SDS011;28063;48.140;11.588;2023-03-01T14:04:27;25.73;;;16.40;;
42420;SDS011;28063;48.140;11.588;2023-03-01T14:09:45;21.70;;;14.65;;
42420;SDS011;28063;48.140;11.588;2023-03-01T14:12:30;19.83;;;12.35;;
42420;SDS011;28063;48.140;11.588;2023-03-01T14:18:04;18.90;;;12.40;;
42420;SDS011;28063;48.140;11.588;2023-03-01T14:20:50;18.15;;;11.15;;
42420;SDS011;28063;48.140;11.588;2023-03-01T14:23:17;28.15;;;17.33;;
42420;SDS011;28063;48.140;11.588;2023-03-01T14:28:19;19.13;;;13.57;;
42420;SDS011;28063;48.140;11.588;2023-03-01T14:30:58;29.60;;;14.48;;
42420;SDS011;28063;48.140;11.588;2023-03-01T14:33:26;25.45;;;15.57;;
42420;SDS011;28063;48.140;11.588;2023-03-01T14:43:46;24.55;;;15.07;;
42420;SDS011;28063;48.140;11.588;2023-03-01T14:49:06;24.50;;;13.95;;
42420;SDS011;28063;48.140;11.588;2023-03-01T14:51:40;25.00;;;14.75;;
42420;SDS011;28063;48.140;11.588;2023-03-01T14:54:20;20.48;;;13.80;;
42420;SDS011;28063;48.140;11.588;2023-03-01T14:57:05;18.42;;;11.48;;
42420;SDS011;28063;48.140;11.588;2023-03-01T14:59:38;22.33;;;14.20;;
42420;SDS011;28063;48.140;11.588;2023-03-01T15:02:04;21.67;;;13.13;;
42420;SDS011;28063;48.140;11.588;2023-03-01T15:04:36;19.60;;;13.00;;
42420;SDS011;28063;48.140;11.588;2023-03-01T15:07:03;15.10;;;10.23;;
42420;SDS011;28063;48.140;11.588;2023-03-01T15:09:29;19.17;;;10.90;;
42420;SDS011;28063;48.140;11.588;2023-03-01T15:14:56;19.83;;;11.95;;
42420;SDS011;28063;48.140;11.588;2023-03-01T15:17:35;19.23;;;10.95;;
42420;SDS011;28063;48.140;11.588;2023-03-01T15:20:04;19.08;;;12.45;;
42420;SDS011;28063;48.140;11.588;2023-03-01T15:22:32;15.85;;;10.90;;
42420;SDS011;28063;48.140;11.588;2023-03-01T15:24:58;21.63;;;13.25;;
42420;SDS011;28063;48.140;11.588;2023-03-01T15:27:24;23.25;;;14.07;;
42420;SDS011;28063;48.140;11.588;2023-03-01T15:29:53;21.35;;;13.02;;
42420;SDS011;28063;48.140;11.588;2023-03-01T15:34:51;20.92;;;12.85;;
42420;SDS011;28063;48.140;11.588;2023-03-01T15:40:49;24.88;;;13.13;;
42420;SDS011;28063;48.140;11.588;2023-03-01T15:46:52;20.83;;;14.15;;
42420;SDS011;28063;48.140;11.588;2023-03-01T15:49:04;18.52;;;12.32;;
42420;SDS011;28063;48.140;11.588;2023-03-01T15:51:42;18.95;;;11.30;;
42420;SDS011;28063;48.140;11.588;2023-03-01T15:54:18;19.05;;;11.70;;
42420;SDS011;28063;48.140;11.588;2023-03-01T15:56:46;17.08;;;9.88;;
42420;SDS011;28063;48.140;11.588;2023-03-01T15:59:12;18.75;;;11.43;;
42420;SDS011;28063;48.140;11.588;2023-03-01T16:01:39;19.33;;;10.88;;
42420;SDS011;28063;48.140;11.588;2023-03-01T16:04:05;14.95;;;9.48;;
42420;SDS011;28063;48.140;11.588;2023-03-01T16:06:31;14.52;;;9.40;;
42420;SDS011;28063;48.140;11.588;2023-03-01T16:08:57;15.88;;;9.45;;
42420;SDS011;28063;48.140;11.588;2023-03-01T16:11:23;22.33;;;12.85;;
42420;SDS011;28063;48.140;11.588;2023-03-01T16:13:49;19.30;;;11.90;;
42420;SDS011;28063;48.140;11.588;2023-03-01T16:16:15;16.65;;;10.75;;
42420;SDS011;28063;48.140;11.588;2023-03-01T16:18:42;18.45;;;10.52;;
42420;SDS011;28063;48.140;11.588;2023-03-01T16:21:20;22.27;;;12.77;;
42420;SDS011;28063;48.140;11.588;2023-03-01T16:23:47;20.30;;;12.45;;
42420;SDS011;28063;48.140;11.588;2023-03-01T16:26:13;20.13;;;11.13;;
42420;SDS011;28063;48.140;11.588;2023-03-01T16:28:42;17.38;;;10.10;;
42420;SDS011;28063;48.140;11.588;2023-03-01T16:31:08;17.45;;;9.20;;
42420;SDS011;28063;48.140;11.588;2023-03-01T16:33:34;13.93;;;8.35;;
42420;SDS011;28063;48.140;11.588;2023-03-01T16:36:05;14.45;;;9.15;;
42420;SDS011;28063;48.140;11.588;2023-03-01T16:38:32;16.83;;;10.93;;
42420;SDS011;28063;48.140;11.588;2023-03-01T16:40:59;15.43;;;10.10;;
42420;SDS011;28063;48.140;11.588;2023-03-01T16:43:25;13.05;;;7.95;;
42420;SDS011;28063;48.140;11.588;2023-03-01T16:45:51;10.60;;;7.05;;
42420;SDS011;28063;48.140;11.588;2023-03-01T16:48:17;9.63;;;5.75;;
42420;SDS011;28063;48.140;11.588;2023-03-01T16:50:42;7.03;;;5.15;;